createdAt,value
2022-10-15T00:04:39.542Z,8.3
2022-10-15T00:09:38.132Z,8.3
2022-10-15T00:14:36.086Z,8
2022-10-15T00:19:33.961Z,7.7
2022-10-15T00:24:31.693Z,7.6
2022-10-15T00:29:29.790Z,7.3
2022-10-15T00:34:27.961Z,7.2
2022-10-15T00:39:26.115Z,7
2022-10-15T00:44:24.183Z,6.9
2022-10-15T00:49:22.672Z,7.1
2022-10-15T00:54:21.083Z,7.3
2022-10-15T00:59:19.578Z,7.4
2022-10-15T01:04:17.884Z,7.7
2022-10-15T01:09:16.067Z,7.8
2022-10-15T01:14:14.269Z,8
2022-10-15T01:19:12.451Z,8.1
2022-10-15T01:24:10.596Z,8.3
2022-10-15T01:29:08.970Z,8.3
2022-10-15T01:34:07.144Z,8.4
2022-10-15T01:39:05.271Z,8.5
2022-10-15T01:44:03.429Z,8.5
2022-10-15T01:49:01.413Z,8.3
2022-10-15T01:53:59.501Z,8
2022-10-15T01:58:57.441Z,7.7
2022-10-15T02:03:55.468Z,7.6
2022-10-15T02:08:53.763Z,7.6
2022-10-15T02:13:52.078Z,7.5
2022-10-15T02:18:50.150Z,7.5
2022-10-15T02:23:48.370Z,7.2
2022-10-15T02:28:46.641Z,6.9
2022-10-15T02:33:44.799Z,6.6
2022-10-15T02:38:42.891Z,6.3
2022-10-15T02:43:40.598Z,6.1
2022-10-15T02:48:38.496Z,5.8
2022-10-15T02:53:36.572Z,5.7
2022-10-15T02:58:34.608Z,5.6
2022-10-15T03:03:32.894Z,5.1
2022-10-15T03:08:30.921Z,5.3
2022-10-15T03:13:29.223Z,5.3
2022-10-15T03:18:27.138Z,5.2
2022-10-15T03:23:25.240Z,5.2
2022-10-15T03:28:23.162Z,5.1
2022-10-15T03:33:21.929Z,5.2
2022-10-15T03:38:19.491Z,5.2
2022-10-15T03:43:17.578Z,5.1
2022-10-15T03:48:15.850Z,5.1
2022-10-15T03:53:14.300Z,5.1
2022-10-15T03:58:12.610Z,5.1
2022-10-15T04:03:10.769Z,5.2
2022-10-15T04:08:09.271Z,5.2
2022-10-15T04:13:07.536Z,5.1
2022-10-15T04:18:05.763Z,5.1
2022-10-15T04:23:03.883Z,5.1
2022-10-15T04:28:02.066Z,5.1
2022-10-15T04:33:00.339Z,5.1
2022-10-15T04:37:58.585Z,5.2
2022-10-15T04:42:56.771Z,5.3
2022-10-15T04:47:54.946Z,5.4
2022-10-15T04:52:53.301Z,5.6
2022-10-15T04:57:51.633Z,5.8
2022-10-15T05:02:49.687Z,6.1
2022-10-15T05:07:48.248Z,6.6
2022-10-15T05:12:47.806Z,7.1
2022-10-15T05:17:45.563Z,7.6
2022-10-15T05:22:44.173Z,8.2
2022-10-15T05:27:42.703Z,8.7
2022-10-15T05:32:41.346Z,9.3
2022-10-15T05:37:40.332Z,10.6
2022-10-15T05:42:43.163Z,15.1
2022-10-15T05:47:45.575Z,19.2
2022-10-15T05:52:46.548Z,22.1
2022-10-15T05:57:47.037Z,24.4
2022-10-15T06:02:43.736Z,22.1
2022-10-15T06:07:39.944Z,19.8
2022-10-15T06:12:36.541Z,18.5
2022-10-15T06:17:34.008Z,18.1
2022-10-15T06:22:32.071Z,18
2022-10-15T06:27:30.435Z,18.1
2022-10-15T06:32:28.874Z,18.3
2022-10-15T06:37:27.492Z,18.3
2022-10-15T06:42:26.102Z,18.4
2022-10-15T06:47:24.974Z,18.6
2022-10-15T06:52:22.881Z,18.6
2022-10-15T06:57:21.248Z,18.2
2022-10-15T07:02:19.291Z,18.1
2022-10-15T07:07:17.282Z,18.2
2022-10-15T07:12:16.457Z,21.3
2022-10-15T07:17:18.918Z,23.5
2022-10-15T07:22:18.105Z,25.5
2022-10-15T07:27:19.203Z,23.8
2022-10-15T07:32:12.792Z,22.4
2022-10-15T07:37:10.019Z,20.6
2022-10-15T07:47:09.110Z,21.6
2022-10-15T07:52:07.200Z,24.1
2022-10-15T07:57:08.484Z,24.4
2022-10-15T08:02:06.922Z,25.5
2022-10-15T08:07:09.472Z,28.4
2022-10-15T08:12:07.409Z,29
2022-10-15T08:17:05.850Z,29.6
2022-10-15T08:22:05.108Z,30.1
2022-10-15T08:27:02.220Z,29.8
2022-10-15T08:32:01.548Z,31.3
2022-10-15T08:37:00.630Z,32
2022-10-15T08:41:58.241Z,32.2
2022-10-15T08:46:56.393Z,31.5
2022-10-15T08:51:51.567Z,29.7
2022-10-15T08:56:44.610Z,27.5
2022-10-15T09:01:44.299Z,27.2
2022-10-15T09:06:47.233Z,32.4
2022-10-15T09:11:46.467Z,32.5
2022-10-15T09:16:41.802Z,31.4
2022-10-15T09:21:41.115Z,31.4
2022-10-15T09:26:32.684Z,26.5
2022-10-15T09:31:34.173Z,27.2
2022-10-15T09:36:32.420Z,30.1
2022-10-15T09:41:33.744Z,32.8
2022-10-15T09:46:29.743Z,29.6
2022-10-15T09:51:31.563Z,34.4
2022-10-15T09:56:31.463Z,34
2022-10-15T10:01:24.682Z,31.8
2022-10-15T10:06:24.859Z,33.5
2022-10-15T10:11:20.806Z,29.9
2022-10-15T10:16:21.114Z,31
2022-10-15T10:21:16.640Z,26.2
2022-10-15T10:26:11.369Z,23.6
2022-10-15T10:31:09.872Z,27.9
2022-10-15T10:36:16.065Z,33.9
2022-10-15T10:41:15.829Z,32.4
2022-10-15T10:46:17.152Z,37.9
2022-10-15T10:51:19.501Z,41.2
2022-10-15T10:56:15.386Z,36.7
2022-10-15T11:01:08.682Z,31.1
2022-10-15T11:06:04.025Z,28.6
2022-10-15T11:11:00.939Z,28.1
2022-10-15T11:15:59.181Z,28.7
2022-10-15T11:21:01.707Z,30.8
2022-10-15T11:25:58.514Z,34
2022-10-15T11:30:58.659Z,33.8
2022-10-15T11:35:54.534Z,29.8
2022-10-15T11:40:49.619Z,27.3
2022-10-15T11:45:45.897Z,25.6
2022-10-15T11:50:43.202Z,25
2022-10-15T11:55:41.170Z,24.6
2022-10-15T12:00:39.348Z,24.6
2022-10-15T12:05:37.672Z,24.7
2022-10-15T12:10:36.102Z,25.2
2022-10-15T12:15:34.632Z,25.7
2022-10-15T12:20:33.305Z,26
2022-10-15T12:25:31.850Z,25.9
2022-10-15T12:30:29.430Z,26.2
2022-10-15T12:35:27.821Z,26.2
2022-10-15T12:40:26.419Z,26.4
2022-10-15T12:45:24.506Z,26.1
2022-10-15T12:50:22.467Z,25.9
2022-10-15T12:55:21.987Z,26.9
2022-10-15T13:00:19.956Z,26.1
2022-10-15T13:05:17.635Z,25.2
2022-10-15T13:10:16.015Z,25.3
2022-10-15T13:15:14.900Z,26.1
2022-10-15T13:20:12.825Z,24.8
2022-10-15T13:25:11.037Z,25.1
2022-10-15T13:30:09.767Z,24.4
2022-10-15T13:35:07.790Z,24.6
2022-10-15T13:40:07.516Z,24.1
2022-10-15T13:45:03.840Z,23.6
2022-10-15T13:50:01.908Z,23.3
2022-10-15T13:55:00.705Z,23
2022-10-15T13:59:58.546Z,22.5
2022-10-15T14:04:56.446Z,22.2
2022-10-15T14:09:54.554Z,21.6
2022-10-15T14:14:52.816Z,21.3
2022-10-15T14:19:58.073Z,21
2022-10-15T14:24:48.702Z,20.2
2022-10-15T14:29:46.210Z,19.5
2022-10-15T14:34:44.007Z,19.1
2022-10-15T14:39:42.427Z,18.6
2022-10-15T14:44:40.268Z,18.2
2022-10-15T14:49:38.843Z,17.7
2022-10-15T14:54:36.679Z,17.1
2022-10-15T14:59:34.385Z,16.9
2022-10-15T15:04:32.183Z,16.2
2022-10-15T15:09:30.105Z,15.7
2022-10-15T15:14:27.820Z,15
2022-10-15T15:19:25.451Z,14.4
2022-10-15T15:24:23.193Z,13.8
2022-10-15T15:29:21.151Z,13.1
2022-10-15T15:34:18.753Z,12.6
2022-10-15T15:39:16.640Z,12.1
2022-10-15T15:44:14.529Z,11.7
2022-10-15T15:49:12.359Z,11.1
2022-10-15T15:54:09.968Z,10.8
2022-10-15T15:59:08.026Z,10.7
2022-10-15T16:04:06.127Z,10.6
2022-10-15T16:09:04.119Z,10.4
2022-10-15T16:14:04.706Z,10.2
2022-10-15T16:19:00.247Z,9.8
2022-10-15T16:23:58.456Z,9.8
2022-10-15T16:28:56.629Z,9.7
2022-10-15T16:33:54.687Z,9.5
2022-10-15T16:38:53.176Z,9.1
2022-10-15T16:43:51.224Z,8.8
2022-10-15T16:48:49.258Z,8.5
2022-10-15T16:53:47.489Z,8.4
2022-10-15T16:58:46.097Z,8.5
2022-10-15T17:03:44.223Z,8.4
2022-10-15T17:08:42.167Z,8.1
2022-10-15T17:13:40.448Z,8.1
2022-10-15T17:18:38.706Z,7.8
2022-10-15T17:23:36.777Z,7.7
2022-10-15T17:28:35.139Z,7.5
2022-10-15T17:33:33.235Z,7.4
2022-10-15T17:38:31.565Z,7.2
2022-10-15T17:43:29.878Z,7.1
2022-10-15T17:48:28.028Z,6.9
2022-10-15T17:53:26.245Z,6.9
2022-10-15T17:58:24.440Z,6.8
2022-10-15T18:03:22.705Z,6.8
2022-10-15T18:08:21.025Z,6.9
2022-10-15T18:13:19.471Z,6.9
2022-10-15T18:18:17.773Z,6.9
2022-10-15T18:23:16.203Z,6.9
2022-10-15T18:28:14.532Z,6.9
2022-10-15T18:33:14.000Z,6.8
2022-10-15T18:38:12.179Z,6.8
2022-10-15T18:43:10.472Z,6.7
2022-10-15T18:48:08.916Z,6.7
2022-10-15T18:53:07.171Z,6.5
2022-10-15T18:58:06.425Z,6.6
2022-10-15T19:03:05.881Z,6.6
2022-10-15T19:08:03.872Z,6.4
2022-10-15T19:13:02.301Z,6.4
2022-10-15T19:23:00.433Z,6.4
2022-10-15T19:27:58.775Z,6.5
2022-10-15T19:32:56.934Z,6.3
2022-10-15T19:37:55.231Z,6.4
2022-10-15T19:42:53.600Z,6.3
2022-10-15T19:47:51.953Z,6.4
2022-10-15T19:52:50.194Z,6.4
2022-10-15T19:57:48.609Z,6.2
2022-10-15T20:02:46.761Z,6.1
2022-10-15T20:07:44.793Z,6
2022-10-15T20:12:43.108Z,6
2022-10-15T20:17:41.370Z,5.9
2022-10-15T20:22:39.308Z,5.9
2022-10-15T20:27:37.377Z,6
2022-10-15T20:32:35.785Z,5.9
2022-10-15T20:37:33.710Z,5.9
2022-10-15T20:42:32.026Z,5.7
2022-10-15T20:47:30.278Z,5.7
2022-10-15T20:52:28.756Z,5.6
2022-10-15T20:57:26.670Z,5.6
2022-10-15T21:02:25.117Z,5.5
2022-10-15T21:07:22.912Z,5.5
2022-10-15T21:12:21.051Z,5.5
2022-10-15T21:17:19.296Z,5.4
2022-10-15T21:22:17.553Z,5.3
2022-10-15T21:27:15.635Z,5.2
2022-10-15T21:32:13.866Z,5.2
2022-10-15T21:37:12.021Z,5.2
2022-10-15T21:42:10.047Z,5.2
2022-10-15T21:47:09.330Z,5.1
2022-10-15T21:52:07.291Z,5.1
2022-10-15T21:57:05.455Z,5
2022-10-15T22:02:03.429Z,5.1
2022-10-15T22:07:01.493Z,5
2022-10-15T22:11:59.827Z,5
2022-10-15T22:16:58.106Z,4.9
2022-10-15T22:21:56.164Z,5
2022-10-15T22:26:54.386Z,5
2022-10-15T22:31:52.367Z,4.9
2022-10-15T22:36:50.592Z,4.8
2022-10-15T22:41:48.868Z,4.8
2022-10-15T22:46:47.133Z,4.7
2022-10-15T22:51:45.493Z,4.7
2022-10-15T22:56:43.762Z,4.7
2022-10-15T23:01:41.985Z,4.6
2022-10-15T23:06:40.091Z,4.6
2022-10-15T23:11:38.211Z,4.5
2022-10-15T23:16:36.529Z,4.5
2022-10-15T23:21:34.794Z,4.5
2022-10-15T23:26:33.068Z,4.5
2022-10-15T23:31:31.271Z,4.4
2022-10-15T23:36:29.415Z,4.3
2022-10-15T23:41:27.609Z,4.2
2022-10-15T23:46:25.663Z,4.2
2022-10-15T23:51:23.938Z,4
2022-10-15T23:56:22.046Z,4
